Pitts, Georgia
Current Conditions -  °F | °C
As of 10:55 AM on Sunday 21 Dec 2014 (Local Time) from KCKF Reporting Station
Drizzle Drizzle  
Wind Chill: 53°   Ceiling: 800
Heat Index: 53°   Visibility: 7mi
Dew Point: 50°   Wind: 7mph
Humidity: 89%   Direction: 70°ENE
Pressure: 30.19"   Gusts: NA
Location:  31.94°N, 83.54°W
Report Text: KCKF 211555Z AUTO 07006KT 7SM -DZ OVC008 12/10 A3019 RMK AO2 T01150098
Loading
Personal Weather Stations






























Interactive Weather Map New forecast layout! Learn more

10-Day Weather Forecast

Advertisements
Track Severe Weather on mobile